< < Back
Terminal Aerodrome Forecast


Current Version              Previous Versions:   1  2  3  4  5  6  7  8  9  

Terminal Aerodrome Forecast

446
FTUS42 KGSP 152100 AAA
TAFAND
TAF AMD
KAND 152113Z 1521/1618 19003KT P6SM OVC016
     FM152300 14003KT P6SM OVC020
     FM160500 22003KT P6SM OVC025
     FM160800 25003KT 6SM BR BKN012
     FM161400 29005KT P6SM BKN030=



Latest METAR

517
SAUS70 KWBC 160500
MTRAND
METAR KAND 160456Z AUTO 00000KT 10SM OVC011 22/21 A3014 RMK AO2 SLP199
T02170206 402390183


USA.gov is the U.S. government's official web portal to all federal, state and local government web resources and services.